TKY87T OPIS-VNKT
Flight info
| Callsign | TKY87T |
|---|---|
| Flight time | 1h 59m |
| Altitude | 35000 |
| Route | INDEK L509 SULOM M890 LKN G598 SMR SMR |
| Aircraft | B738/M-SDE2E3FGHIRWXY/LB1 |
Departure
| Time | 2026-05-06 09:22 |
|---|---|
| Airport | Islamabad International Airport (OPIS) |
Arrival
| Time | 2026-05-06 11:21 |
|---|---|
| Airport | Tribhuvan International Airport (VNKT) |
| Time | Latitude | Longitude | Altitude | Speed | Heading |
|---|---|---|---|---|---|
| 2026-05-06 09:02 | 33.55366 | 72.83118 | 1769 ft | 0 kts | 326° |
| 2026-05-06 09:12 | 33.55357 | 72.83125 | 1772 ft | 4 kts | 324° |
| 2026-05-06 09:13 | 33.55336 | 72.83145 | 1769 ft | 4 kts | 318° |
| 2026-05-06 09:13 | 33.55317 | 72.83168 | 1769 ft | 4 kts | 306° |
| 2026-05-06 09:13 | 33.55306 | 72.83194 | 1770 ft | 4 kts | 266° |
| 2026-05-06 09:13 | 33.55308 | 72.83207 | 1772 ft | 1 kts | 236° |
| 2026-05-06 09:16 | 33.55294 | 72.83184 | 1770 ft | 7 kts | 236° |
| 2026-05-06 09:16 | 33.55267 | 72.83136 | 1772 ft | 7 kts | 236° |
| 2026-05-06 09:16 | 33.55237 | 72.83084 | 1770 ft | 8 kts | 235° |
| 2026-05-06 09:16 | 33.55199 | 72.83017 | 1769 ft | 11 kts | 236° |
| 2026-05-06 09:17 | 33.55152 | 72.82929 | 1768 ft | 14 kts | 250° |
| 2026-05-06 09:17 | 33.55160 | 72.82809 | 1767 ft | 16 kts | 279° |
| 2026-05-06 09:17 | 33.55181 | 72.82673 | 1769 ft | 18 kts | 278° |
| 2026-05-06 09:17 | 33.55204 | 72.82521 | 1767 ft | 19 kts | 280° |
| 2026-05-06 09:18 | 33.55229 | 72.82357 | 1767 ft | 21 kts | 280° |
| 2026-05-06 09:18 | 33.55257 | 72.82180 | 1768 ft | 22 kts | 280° |
| 2026-05-06 09:18 | 33.55284 | 72.81997 | 1768 ft | 22 kts | 280° |
| 2026-05-06 09:18 | 33.55312 | 72.81819 | 1768 ft | 21 kts | 280° |
| 2026-05-06 09:19 | 33.55338 | 72.81646 | 1766 ft | 21 kts | 279° |
| 2026-05-06 09:19 | 33.55364 | 72.81479 | 1767 ft | 20 kts | 281° |
| 2026-05-06 09:19 | 33.55389 | 72.81316 | 1766 ft | 20 kts | 280° |
| 2026-05-06 09:19 | 33.55413 | 72.81157 | 1768 ft | 19 kts | 281° |
| 2026-05-06 09:20 | 33.55437 | 72.81005 | 1767 ft | 18 kts | 280° |
| 2026-05-06 09:20 | 33.55461 | 72.80846 | 1770 ft | 20 kts | 280° |
| 2026-05-06 09:20 | 33.55442 | 72.80696 | 1766 ft | 20 kts | 206° |
| 2026-05-06 09:20 | 33.55307 | 72.80663 | 1756 ft | 20 kts | 191° |
| 2026-05-06 09:21 | 33.55226 | 72.80646 | 1754 ft | 9 kts | 189° |
| 2026-05-06 09:21 | 33.55165 | 72.80635 | 1750 ft | 10 kts | 188° |
| 2026-05-06 09:21 | 33.55100 | 72.80653 | 1745 ft | 10 kts | 121° |
| 2026-05-06 09:21 | 33.55084 | 72.80790 | 1754 ft | 27 kts | 102° |
| 2026-05-06 09:22 | 33.55017 | 72.81224 | 1753 ft | 85 kts | 101° |
| 2026-05-06 09:22 | 33.54869 | 72.82171 | 1756 ft | 144 kts | 101° |
| 2026-05-06 09:22 | 33.54648 | 72.83557 | 1785 ft | 191 kts | 101° |
| 2026-05-06 09:22 | 33.54409 | 72.85171 | 2366 ft | 202 kts | 101° |
| 2026-05-06 09:23 | 33.54145 | 72.86896 | 2888 ft | 214 kts | 100° |
| 2026-05-06 09:23 | 33.53881 | 72.88600 | 3791 ft | 200 kts | 101° |
| 2026-05-06 09:23 | 33.53620 | 72.90233 | 4558 ft | 204 kts | 103° |
| 2026-05-06 09:23 | 33.53278 | 72.91276 | 4936 ft | 205 kts | 128° |
| 2026-05-06 09:24 | 33.52128 | 72.92352 | 5234 ft | 223 kts | 166° |
| 2026-05-06 09:24 | 33.50554 | 72.92363 | 5438 ft | 237 kts | 196° |
| 2026-05-06 09:24 | 33.48900 | 72.91766 | 5657 ft | 260 kts | 199° |
| 2026-05-06 09:24 | 33.47111 | 72.91079 | 6088 ft | 276 kts | 199° |
| 2026-05-06 09:25 | 33.45270 | 72.90375 | 6685 ft | 280 kts | 199° |
| 2026-05-06 09:25 | 33.43392 | 72.89673 | 6959 ft | 284 kts | 199° |
| 2026-05-06 09:25 | 33.41491 | 72.88974 | 6986 ft | 287 kts | 198° |
| 2026-05-06 09:25 | 33.39585 | 72.88283 | 6989 ft | 285 kts | 198° |
| 2026-05-06 09:26 | 33.37697 | 72.87600 | 6990 ft | 284 kts | 198° |
| 2026-05-06 09:26 | 33.35804 | 72.86934 | 6986 ft | 283 kts | 195° |
| 2026-05-06 09:26 | 33.33835 | 72.86726 | 7101 ft | 287 kts | 179° |
| 2026-05-06 09:26 | 33.31816 | 72.86877 | 7684 ft | 294 kts | 176° |
| 2026-05-06 09:27 | 33.29775 | 72.87068 | 8472 ft | 294 kts | 176° |
| 2026-05-06 09:27 | 33.27711 | 72.87239 | 9150 ft | 300 kts | 176° |
| 2026-05-06 09:27 | 33.25605 | 72.87386 | 9833 ft | 306 kts | 177° |
| 2026-05-06 09:27 | 33.23456 | 72.87523 | 10361 ft | 316 kts | 177° |
| 2026-05-06 09:28 | 33.21205 | 72.87660 | 10522 ft | 339 kts | 177° |
| 2026-05-06 09:28 | 33.18819 | 72.88234 | 10810 ft | 354 kts | 154° |
| 2026-05-06 09:28 | 33.16877 | 72.89973 | 11401 ft | 356 kts | 129° |
| 2026-05-06 09:28 | 33.15658 | 72.92520 | 12065 ft | 356 kts | 105° |
| 2026-05-06 09:29 | 33.15359 | 72.95425 | 12724 ft | 354 kts | 82° |
| 2026-05-06 09:29 | 33.15771 | 72.98321 | 13397 ft | 356 kts | 83° |
| 2026-05-06 09:29 | 33.15469 | 73.01277 | 13941 ft | 366 kts | 110° |
| 2026-05-06 09:29 | 33.14287 | 73.03982 | 14575 ft | 370 kts | 119° |
| 2026-05-06 09:30 | 33.12969 | 73.06633 | 15127 ft | 374 kts | 118° |
| 2026-05-06 09:30 | 33.11668 | 73.09350 | 15664 ft | 379 kts | 117° |
| 2026-05-06 09:30 | 33.10412 | 73.12122 | 16242 ft | 382 kts | 116° |
| 2026-05-06 09:30 | 33.09171 | 73.14940 | 16818 ft | 385 kts | 115° |
| 2026-05-06 09:31 | 33.07925 | 73.17779 | 17379 ft | 389 kts | 117° |
| 2026-05-06 09:31 | 33.06225 | 73.20324 | 17886 ft | 399 kts | 140° |
| 2026-05-06 09:31 | 33.03818 | 73.21998 | 18365 ft | 406 kts | 160° |
| 2026-05-06 09:31 | 33.01053 | 73.22714 | 18838 ft | 409 kts | 172° |
| 2026-05-06 09:32 | 32.98219 | 73.23157 | 19327 ft | 413 kts | 173° |
| 2026-05-06 09:32 | 32.95356 | 73.23575 | 19790 ft | 417 kts | 173° |
| 2026-05-06 09:32 | 32.92464 | 73.24011 | 20264 ft | 421 kts | 173° |
| 2026-05-06 09:32 | 32.89549 | 73.24471 | 20744 ft | 424 kts | 173° |
| 2026-05-06 09:33 | 32.86614 | 73.24951 | 21220 ft | 427 kts | 172° |
| 2026-05-06 09:33 | 32.83661 | 73.25442 | 21684 ft | 431 kts | 172° |
| 2026-05-06 09:33 | 32.80675 | 73.25939 | 22131 ft | 435 kts | 173° |
| 2026-05-06 09:33 | 32.77683 | 73.26550 | 22559 ft | 439 kts | 163° |
| 2026-05-06 09:34 | 32.74924 | 73.28093 | 22945 ft | 441 kts | 143° |
| 2026-05-06 09:34 | 32.72487 | 73.30318 | 23458 ft | 442 kts | 140° |
| 2026-05-06 09:34 | 32.70082 | 73.32601 | 23886 ft | 443 kts | 140° |
| 2026-05-06 09:34 | 32.67675 | 73.34899 | 24251 ft | 446 kts | 140° |
| 2026-05-06 09:35 | 32.65243 | 73.37212 | 24607 ft | 449 kts | 140° |
| 2026-05-06 09:35 | 32.62787 | 73.39531 | 24953 ft | 453 kts | 140° |
| 2026-05-06 09:35 | 32.60306 | 73.41856 | 25306 ft | 456 kts | 140° |
| 2026-05-06 09:35 | 32.57814 | 73.44179 | 25648 ft | 459 kts | 140° |
| 2026-05-06 09:36 | 32.55290 | 73.46525 | 25951 ft | 463 kts | 141° |
| 2026-05-06 09:36 | 32.52743 | 73.48887 | 26256 ft | 467 kts | 141° |
| 2026-05-06 09:36 | 32.50180 | 73.51260 | 26597 ft | 469 kts | 141° |
| 2026-05-06 09:36 | 32.47603 | 73.53646 | 26934 ft | 471 kts | 141° |
| 2026-05-06 09:37 | 32.45007 | 73.56046 | 27261 ft | 474 kts | 141° |
| 2026-05-06 09:37 | 32.42401 | 73.58455 | 27571 ft | 477 kts | 141° |
| 2026-05-06 09:37 | 32.39781 | 73.60876 | 27877 ft | 480 kts | 141° |
| 2026-05-06 09:37 | 32.37141 | 73.63314 | 28181 ft | 482 kts | 141° |
| 2026-05-06 09:38 | 32.34489 | 73.65760 | 28487 ft | 485 kts | 141° |
| 2026-05-06 09:38 | 32.31819 | 73.68222 | 28807 ft | 487 kts | 141° |
| 2026-05-06 09:38 | 32.29135 | 73.70695 | 29058 ft | 491 kts | 141° |
| 2026-05-06 09:38 | 32.26435 | 73.73180 | 29330 ft | 493 kts | 141° |
| 2026-05-06 09:39 | 32.23719 | 73.75679 | 29617 ft | 496 kts | 141° |
| 2026-05-06 09:39 | 32.20994 | 73.78183 | 29889 ft | 498 kts | 141° |
| 2026-05-06 09:39 | 32.18249 | 73.80703 | 30108 ft | 500 kts | 141° |
| 2026-05-06 09:39 | 32.15496 | 73.83230 | 30330 ft | 503 kts | 141° |
| 2026-05-06 09:40 | 32.12729 | 73.85767 | 30553 ft | 505 kts | 141° |
| 2026-05-06 09:40 | 32.09952 | 73.88311 | 30724 ft | 508 kts | 141° |
| 2026-05-06 09:40 | 32.04328 | 73.93458 | 31048 ft | 514 kts | 142° |
| 2026-05-06 09:41 | 32.01510 | 73.96033 | 31405 ft | 512 kts | 142° |
| 2026-05-06 09:41 | 31.98701 | 73.98598 | 31765 ft | 510 kts | 142° |
| 2026-05-06 09:41 | 31.95900 | 74.01154 | 32054 ft | 510 kts | 142° |
| 2026-05-06 09:41 | 31.93094 | 74.03712 | 32378 ft | 509 kts | 142° |
| 2026-05-06 09:42 | 31.90303 | 74.06255 | 32694 ft | 508 kts | 142° |
| 2026-05-06 09:42 | 31.87507 | 74.08801 | 32921 ft | 508 kts | 142° |
| 2026-05-06 09:42 | 31.84738 | 74.11320 | 33079 ft | 511 kts | 142° |
| 2026-05-06 09:42 | 31.81882 | 74.13916 | 33255 ft | 513 kts | 142° |
| 2026-05-06 09:43 | 31.79057 | 74.16481 | 33546 ft | 512 kts | 142° |
| 2026-05-06 09:43 | 31.76245 | 74.19033 | 33856 ft | 511 kts | 142° |
| 2026-05-06 09:43 | 31.73436 | 74.21580 | 34111 ft | 510 kts | 143° |
| 2026-05-06 09:43 | 31.70630 | 74.24124 | 34336 ft | 509 kts | 143° |
| 2026-05-06 09:44 | 31.67820 | 74.26667 | 34509 ft | 510 kts | 143° |
| 2026-05-06 09:44 | 31.65008 | 74.29211 | 34691 ft | 511 kts | 143° |
| 2026-05-06 09:44 | 31.59355 | 74.34319 | 34795 ft | 516 kts | 143° |
| 2026-05-06 09:45 | 31.53673 | 74.39446 | 34808 ft | 514 kts | 143° |
| 2026-05-06 09:45 | 31.48054 | 74.44509 | 34800 ft | 511 kts | 143° |
| 2026-05-06 09:46 | 31.42428 | 74.49571 | 34797 ft | 509 kts | 143° |
| 2026-05-06 09:46 | 31.37002 | 74.54851 | 34794 ft | 506 kts | 130° |
| 2026-05-06 09:47 | 31.33259 | 74.61750 | 34819 ft | 505 kts | 109° |
| 2026-05-06 09:47 | 31.31230 | 74.69614 | 34820 ft | 508 kts | 102° |
| 2026-05-06 09:48 | 31.29353 | 74.77598 | 34814 ft | 510 kts | 102° |
| 2026-05-06 09:48 | 31.27404 | 74.85592 | 34811 ft | 512 kts | 103° |
| 2026-05-06 09:49 | 31.25411 | 74.93571 | 34811 ft | 512 kts | 103° |
| 2026-05-06 09:49 | 31.23404 | 75.01552 | 34809 ft | 511 kts | 103° |
| 2026-05-06 09:50 | 31.21406 | 75.09489 | 34830 ft | 509 kts | 103° |
| 2026-05-06 09:50 | 31.19410 | 75.17413 | 34800 ft | 507 kts | 103° |
| 2026-05-06 09:51 | 31.17419 | 75.25290 | 34813 ft | 505 kts | 103° |
| 2026-05-06 09:51 | 31.15428 | 75.33149 | 34818 ft | 504 kts | 103° |
| 2026-05-06 09:52 | 31.13437 | 75.40986 | 34822 ft | 503 kts | 103° |
| 2026-05-06 09:52 | 31.11425 | 75.48811 | 34827 ft | 504 kts | 105° |
| 2026-05-06 09:53 | 31.08976 | 75.56503 | 34826 ft | 506 kts | 109° |
| 2026-05-06 09:53 | 31.06361 | 75.64130 | 34828 ft | 507 kts | 109° |
| 2026-05-06 09:54 | 31.03761 | 75.71772 | 34827 ft | 507 kts | 109° |
| 2026-05-06 09:54 | 31.01193 | 75.79430 | 34855 ft | 507 kts | 109° |
| 2026-05-06 09:55 | 30.98629 | 75.87099 | 34826 ft | 508 kts | 109° |
| 2026-05-06 09:55 | 30.96058 | 75.94772 | 34834 ft | 508 kts | 109° |
| 2026-05-06 09:56 | 30.93480 | 76.02439 | 34830 ft | 509 kts | 109° |
| 2026-05-06 09:56 | 30.90895 | 76.10106 | 34831 ft | 509 kts | 109° |
| 2026-05-06 09:57 | 30.88305 | 76.17770 | 34849 ft | 509 kts | 109° |
| 2026-05-06 09:57 | 30.85711 | 76.25432 | 34832 ft | 508 kts | 109° |
| 2026-05-06 09:58 | 30.83117 | 76.33074 | 34836 ft | 508 kts | 109° |
| 2026-05-06 09:58 | 30.80522 | 76.40702 | 34838 ft | 507 kts | 109° |
| 2026-05-06 09:59 | 30.77927 | 76.48312 | 34824 ft | 505 kts | 109° |
| 2026-05-06 09:59 | 30.75333 | 76.55904 | 34828 ft | 505 kts | 110° |
| 2026-05-06 10:00 | 30.72737 | 76.63486 | 34807 ft | 505 kts | 110° |
| 2026-05-06 10:00 | 30.70136 | 76.71068 | 34805 ft | 505 kts | 110° |
| 2026-05-06 10:01 | 30.67175 | 76.78449 | 34797 ft | 506 kts | 123° |
| 2026-05-06 10:01 | 30.62953 | 76.84993 | 34807 ft | 506 kts | 128° |
| 2026-05-06 10:02 | 30.58628 | 76.91442 | 34838 ft | 507 kts | 128° |
| 2026-05-06 10:02 | 30.54382 | 76.97899 | 34837 ft | 507 kts | 127° |
| 2026-05-06 10:03 | 30.50134 | 77.04416 | 34831 ft | 506 kts | 127° |
| 2026-05-06 10:03 | 30.45886 | 77.10919 | 34828 ft | 506 kts | 127° |
| 2026-05-06 10:04 | 30.41533 | 77.17314 | 34821 ft | 505 kts | 135° |
| 2026-05-06 10:04 | 30.36071 | 77.22344 | 34833 ft | 500 kts | 153° |
| 2026-05-06 10:05 | 30.29866 | 77.25932 | 34813 ft | 498 kts | 157° |
| 2026-05-06 10:05 | 30.23640 | 77.29447 | 34823 ft | 498 kts | 156° |
| 2026-05-06 10:06 | 30.17445 | 77.33026 | 34818 ft | 498 kts | 156° |
| 2026-05-06 10:06 | 30.11253 | 77.36631 | 34802 ft | 498 kts | 156° |
| 2026-05-06 10:07 | 30.05065 | 77.40227 | 34783 ft | 498 kts | 156° |
| 2026-05-06 10:07 | 29.98893 | 77.43880 | 34801 ft | 500 kts | 152° |
| 2026-05-06 10:08 | 29.94444 | 77.48153 | 34814 ft | 505 kts | 130° |
| 2026-05-06 10:08 | 29.92387 | 77.51431 | 34808 ft | 506 kts | 119° |
| 2026-05-06 10:08 | 29.90902 | 77.55095 | 34811 ft | 504 kts | 110° |
| 2026-05-06 10:09 | 29.88445 | 77.62679 | 34820 ft | 506 kts | 109° |
| 2026-05-06 10:09 | 29.86013 | 77.70294 | 34804 ft | 507 kts | 109° |
| 2026-05-06 10:10 | 29.83512 | 77.77899 | 34801 ft | 507 kts | 110° |
| 2026-05-06 10:10 | 29.80973 | 77.85476 | 34799 ft | 507 kts | 110° |
| 2026-05-06 10:11 | 29.78421 | 77.93043 | 34800 ft | 507 kts | 110° |
| 2026-05-06 10:11 | 29.75870 | 78.00603 | 34817 ft | 507 kts | 110° |
| 2026-05-06 10:12 | 29.73314 | 78.08165 | 34802 ft | 507 kts | 110° |
| 2026-05-06 10:12 | 29.70757 | 78.15716 | 34806 ft | 506 kts | 110° |
| 2026-05-06 10:13 | 29.68201 | 78.23251 | 34811 ft | 505 kts | 110° |
| 2026-05-06 10:13 | 29.65645 | 78.30769 | 34821 ft | 504 kts | 110° |
| 2026-05-06 10:14 | 29.63091 | 78.38264 | 34810 ft | 504 kts | 110° |
| 2026-05-06 10:14 | 29.60532 | 78.45756 | 34789 ft | 503 kts | 110° |
| 2026-05-06 10:15 | 29.57974 | 78.53231 | 34818 ft | 503 kts | 110° |
| 2026-05-06 10:15 | 29.55410 | 78.60708 | 34813 ft | 504 kts | 110° |
| 2026-05-06 10:16 | 29.52837 | 78.68194 | 34823 ft | 505 kts | 111° |
| 2026-05-06 10:16 | 29.50248 | 78.75713 | 34830 ft | 507 kts | 111° |
| 2026-05-06 10:17 | 29.47649 | 78.83241 | 34822 ft | 508 kts | 111° |
| 2026-05-06 10:17 | 29.45040 | 78.90783 | 34802 ft | 509 kts | 111° |
| 2026-05-06 10:18 | 29.42423 | 78.98332 | 34816 ft | 509 kts | 111° |
| 2026-05-06 10:18 | 29.39802 | 79.05876 | 34824 ft | 509 kts | 111° |
| 2026-05-06 10:19 | 29.37178 | 79.13414 | 34796 ft | 508 kts | 112° |
| 2026-05-06 10:19 | 29.34557 | 79.20924 | 34814 ft | 507 kts | 112° |
| 2026-05-06 10:20 | 29.31936 | 79.28420 | 34831 ft | 506 kts | 112° |
| 2026-05-06 10:20 | 29.29314 | 79.35904 | 34817 ft | 506 kts | 112° |
| 2026-05-06 10:21 | 29.26692 | 79.43373 | 34817 ft | 505 kts | 112° |
| 2026-05-06 10:21 | 29.24069 | 79.50826 | 34810 ft | 504 kts | 112° |
| 2026-05-06 10:22 | 29.21444 | 79.58274 | 34800 ft | 504 kts | 113° |
| 2026-05-06 10:22 | 29.18821 | 79.65697 | 34806 ft | 503 kts | 113° |
| 2026-05-06 10:23 | 29.16196 | 79.73113 | 34836 ft | 502 kts | 113° |
| 2026-05-06 10:23 | 29.13571 | 79.80510 | 34823 ft | 502 kts | 113° |
| 2026-05-06 10:24 | 29.10943 | 79.87902 | 34833 ft | 502 kts | 113° |
| 2026-05-06 10:24 | 29.08310 | 79.95293 | 34812 ft | 503 kts | 114° |
| 2026-05-06 10:25 | 29.05682 | 80.02654 | 34825 ft | 504 kts | 114° |
| 2026-05-06 10:25 | 29.03029 | 80.10072 | 34822 ft | 505 kts | 114° |
| 2026-05-06 10:26 | 29.00365 | 80.17503 | 34812 ft | 506 kts | 114° |
| 2026-05-06 10:26 | 28.97693 | 80.24945 | 34808 ft | 507 kts | 114° |
| 2026-05-06 10:27 | 28.95010 | 80.32399 | 34818 ft | 508 kts | 114° |
| 2026-05-06 10:27 | 28.92319 | 80.39860 | 34813 ft | 508 kts | 114° |
| 2026-05-06 10:28 | 28.89626 | 80.47314 | 34781 ft | 508 kts | 114° |
| 2026-05-06 10:28 | 28.86931 | 80.54755 | 34798 ft | 508 kts | 114° |
| 2026-05-06 10:29 | 28.84230 | 80.62199 | 34815 ft | 508 kts | 114° |
| 2026-05-06 10:29 | 28.81523 | 80.69645 | 34813 ft | 509 kts | 115° |
| 2026-05-06 10:30 | 28.78809 | 80.77094 | 34795 ft | 509 kts | 115° |
| 2026-05-06 10:30 | 28.76091 | 80.84540 | 34794 ft | 509 kts | 115° |
| 2026-05-06 10:31 | 28.73366 | 80.91990 | 34802 ft | 509 kts | 115° |
| 2026-05-06 10:31 | 28.70638 | 80.99432 | 34785 ft | 509 kts | 115° |
| 2026-05-06 10:32 | 28.67905 | 81.06873 | 34784 ft | 509 kts | 115° |
| 2026-05-06 10:32 | 28.65174 | 81.14294 | 34772 ft | 508 kts | 115° |
| 2026-05-06 10:33 | 28.62444 | 81.21698 | 34798 ft | 507 kts | 115° |
| 2026-05-06 10:33 | 28.59708 | 81.29102 | 34781 ft | 507 kts | 115° |
| 2026-05-06 10:34 | 28.56971 | 81.36496 | 34811 ft | 507 kts | 115° |
| 2026-05-06 10:34 | 28.54231 | 81.43881 | 34811 ft | 507 kts | 116° |
| 2026-05-06 10:35 | 28.51479 | 81.51284 | 34808 ft | 508 kts | 115° |
| 2026-05-06 10:35 | 28.48728 | 81.58671 | 34813 ft | 507 kts | 116° |
| 2026-05-06 10:36 | 28.45970 | 81.66062 | 34813 ft | 508 kts | 116° |
| 2026-05-06 10:36 | 28.43211 | 81.73442 | 34819 ft | 506 kts | 116° |
| 2026-05-06 10:37 | 28.40453 | 81.80804 | 34798 ft | 506 kts | 116° |
| 2026-05-06 10:37 | 28.37716 | 81.88096 | 34820 ft | 505 kts | 116° |
| 2026-05-06 10:38 | 28.34960 | 81.95421 | 34819 ft | 504 kts | 116° |
| 2026-05-06 10:38 | 28.32189 | 82.02776 | 34826 ft | 504 kts | 116° |
| 2026-05-06 10:39 | 28.29433 | 82.10074 | 34815 ft | 502 kts | 116° |
| 2026-05-06 10:39 | 28.26697 | 82.17308 | 34849 ft | 503 kts | 116° |
| 2026-05-06 10:40 | 28.23936 | 82.24594 | 34834 ft | 503 kts | 116° |
| 2026-05-06 10:40 | 28.21171 | 82.31875 | 34826 ft | 503 kts | 116° |
| 2026-05-06 10:41 | 28.18392 | 82.39177 | 34822 ft | 505 kts | 116° |
| 2026-05-06 10:41 | 28.15612 | 82.46470 | 34859 ft | 504 kts | 116° |
| 2026-05-06 10:42 | 28.12830 | 82.53755 | 34848 ft | 504 kts | 116° |
| 2026-05-06 10:42 | 28.10044 | 82.61036 | 34838 ft | 503 kts | 116° |
| 2026-05-06 10:43 | 28.07260 | 82.68300 | 34838 ft | 502 kts | 116° |
| 2026-05-06 10:44 | 28.03083 | 82.79170 | 34851 ft | 501 kts | 117° |
| 2026-05-06 10:44 | 28.00302 | 82.86391 | 34856 ft | 500 kts | 117° |
| 2026-05-06 10:45 | 27.97529 | 82.93579 | 34854 ft | 497 kts | 117° |
| 2026-05-06 10:45 | 27.94776 | 83.00702 | 34851 ft | 491 kts | 117° |
| 2026-05-06 10:46 | 27.92048 | 83.07744 | 34875 ft | 489 kts | 117° |
| 2026-05-06 10:46 | 27.89314 | 83.14788 | 34820 ft | 490 kts | 117° |
| 2026-05-06 10:47 | 27.86555 | 83.21877 | 34836 ft | 497 kts | 118° |
| 2026-05-06 10:47 | 27.83749 | 83.29076 | 34850 ft | 503 kts | 118° |
| 2026-05-06 10:48 | 27.80924 | 83.36319 | 34847 ft | 505 kts | 118° |
| 2026-05-06 10:48 | 27.78094 | 83.43567 | 34795 ft | 502 kts | 118° |
| 2026-05-06 10:48 | 27.76690 | 83.47159 | 34552 ft | 498 kts | 118° |
| 2026-05-06 10:49 | 27.75319 | 83.50665 | 34334 ft | 491 kts | 118° |
| 2026-05-06 10:49 | 27.73945 | 83.54174 | 34096 ft | 486 kts | 118° |
| 2026-05-06 10:49 | 27.72567 | 83.57686 | 33880 ft | 481 kts | 118° |
| 2026-05-06 10:49 | 27.71238 | 83.61073 | 33631 ft | 476 kts | 118° |
| 2026-05-06 10:50 | 27.69903 | 83.64466 | 33368 ft | 471 kts | 118° |
| 2026-05-06 10:50 | 27.68578 | 83.67831 | 33087 ft | 467 kts | 118° |
| 2026-05-06 10:50 | 27.67251 | 83.71199 | 32815 ft | 462 kts | 118° |
| 2026-05-06 10:50 | 27.65946 | 83.74508 | 32571 ft | 462 kts | 118° |
| 2026-05-06 10:51 | 27.64632 | 83.77830 | 32352 ft | 465 kts | 118° |
| 2026-05-06 10:51 | 27.63329 | 83.81123 | 32100 ft | 466 kts | 118° |
| 2026-05-06 10:51 | 27.62005 | 83.84471 | 31842 ft | 468 kts | 118° |
| 2026-05-06 10:51 | 27.60684 | 83.87813 | 31531 ft | 464 kts | 118° |
| 2026-05-06 10:52 | 27.59359 | 83.91166 | 31163 ft | 461 kts | 118° |
| 2026-05-06 10:52 | 27.58074 | 83.94414 | 30762 ft | 458 kts | 119° |
| 2026-05-06 10:52 | 27.56780 | 83.97679 | 30385 ft | 455 kts | 119° |
| 2026-05-06 10:52 | 27.55492 | 84.00926 | 29991 ft | 453 kts | 119° |
| 2026-05-06 10:53 | 27.54206 | 84.04163 | 29541 ft | 451 kts | 119° |
| 2026-05-06 10:53 | 27.52929 | 84.07374 | 29116 ft | 448 kts | 118° |
| 2026-05-06 10:53 | 27.51662 | 84.10562 | 28681 ft | 444 kts | 118° |
| 2026-05-06 10:53 | 27.50401 | 84.13729 | 28277 ft | 441 kts | 118° |
| 2026-05-06 10:54 | 27.49152 | 84.16862 | 27864 ft | 437 kts | 118° |
| 2026-05-06 10:54 | 27.48314 | 84.18966 | 27591 ft | 435 kts | 118° |
| 2026-05-06 10:54 | 27.47095 | 84.22020 | 27202 ft | 431 kts | 118° |
| 2026-05-06 10:54 | 27.45868 | 84.25092 | 26801 ft | 428 kts | 118° |
| 2026-05-06 10:55 | 27.44651 | 84.28137 | 26401 ft | 425 kts | 117° |
| 2026-05-06 10:55 | 27.43443 | 84.31158 | 26011 ft | 422 kts | 117° |
| 2026-05-06 10:55 | 27.42241 | 84.34161 | 25618 ft | 419 kts | 117° |
| 2026-05-06 10:55 | 27.41045 | 84.37147 | 25254 ft | 417 kts | 117° |
| 2026-05-06 10:56 | 27.39857 | 84.40111 | 24897 ft | 414 kts | 117° |
| 2026-05-06 10:56 | 27.38693 | 84.43016 | 24855 ft | 401 kts | 117° |
| 2026-05-06 10:56 | 27.37562 | 84.45839 | 24825 ft | 389 kts | 117° |
| 2026-05-06 10:56 | 27.36467 | 84.48571 | 24782 ft | 377 kts | 117° |
| 2026-05-06 10:57 | 27.35407 | 84.51212 | 24797 ft | 364 kts | 118° |
| 2026-05-06 10:57 | 27.34383 | 84.53762 | 24812 ft | 352 kts | 118° |
| 2026-05-06 10:57 | 27.33392 | 84.56226 | 24806 ft | 340 kts | 118° |
| 2026-05-06 10:57 | 27.32438 | 84.58598 | 24810 ft | 327 kts | 119° |
| 2026-05-06 10:58 | 27.31517 | 84.60885 | 24809 ft | 316 kts | 119° |
| 2026-05-06 10:58 | 27.30612 | 84.63123 | 24835 ft | 315 kts | 119° |
| 2026-05-06 10:58 | 27.29689 | 84.65399 | 24844 ft | 326 kts | 119° |
| 2026-05-06 10:58 | 27.28728 | 84.67763 | 24873 ft | 340 kts | 119° |
| 2026-05-06 10:59 | 27.27726 | 84.70230 | 24855 ft | 352 kts | 119° |
| 2026-05-06 10:59 | 27.26716 | 84.72730 | 24602 ft | 351 kts | 118° |
| 2026-05-06 10:59 | 27.25723 | 84.75199 | 24458 ft | 341 kts | 118° |
| 2026-05-06 10:59 | 27.24754 | 84.77604 | 24170 ft | 335 kts | 119° |
| 2026-05-06 11:00 | 27.23796 | 84.79976 | 23870 ft | 331 kts | 118° |
| 2026-05-06 11:00 | 27.22849 | 84.82314 | 23563 ft | 328 kts | 119° |
| 2026-05-06 11:00 | 27.21901 | 84.84650 | 23049 ft | 330 kts | 118° |
| 2026-05-06 11:00 | 27.20948 | 84.86998 | 22547 ft | 331 kts | 118° |
| 2026-05-06 11:01 | 27.19993 | 84.89352 | 22054 ft | 332 kts | 118° |
| 2026-05-06 11:01 | 27.19035 | 84.91712 | 21545 ft | 332 kts | 118° |
| 2026-05-06 11:01 | 27.18077 | 84.94071 | 21050 ft | 331 kts | 118° |
| 2026-05-06 11:01 | 27.17144 | 84.96436 | 20556 ft | 332 kts | 112° |
| 2026-05-06 11:02 | 27.16612 | 84.98963 | 20108 ft | 334 kts | 97° |
| 2026-05-06 11:02 | 27.16337 | 85.01480 | 20024 ft | 316 kts | 108° |
| 2026-05-06 11:02 | 27.15503 | 85.03667 | 19838 ft | 298 kts | 128° |
| 2026-05-06 11:02 | 27.14138 | 85.05348 | 19439 ft | 287 kts | 148° |
| 2026-05-06 11:03 | 27.12402 | 85.06351 | 19043 ft | 277 kts | 169° |
| 2026-05-06 11:03 | 27.10522 | 85.06576 | 18626 ft | 270 kts | 189° |
| 2026-05-06 11:03 | 27.08745 | 85.06014 | 18205 ft | 265 kts | 210° |
| 2026-05-06 11:03 | 27.07311 | 85.04755 | 17717 ft | 262 kts | 232° |
| 2026-05-06 11:04 | 27.06433 | 85.02992 | 17296 ft | 259 kts | 253° |
| 2026-05-06 11:04 | 27.06254 | 85.01016 | 17055 ft | 255 kts | 275° |
| 2026-05-06 11:04 | 27.06780 | 84.99122 | 16789 ft | 257 kts | 297° |
| 2026-05-06 11:04 | 27.07949 | 84.97573 | 16568 ft | 267 kts | 320° |
| 2026-05-06 11:05 | 27.09614 | 84.96614 | 16518 ft | 275 kts | 342° |
| 2026-05-06 11:05 | 27.11543 | 84.96391 | 16451 ft | 285 kts | 4° |
| 2026-05-06 11:05 | 27.13465 | 84.96957 | 16381 ft | 288 kts | 24° |
| 2026-05-06 11:05 | 27.15181 | 84.98113 | 16336 ft | 289 kts | 40° |
| 2026-05-06 11:06 | 27.16482 | 84.99824 | 16250 ft | 289 kts | 62° |
| 2026-05-06 11:06 | 27.17214 | 85.01908 | 16189 ft | 287 kts | 75° |
| 2026-05-06 11:06 | 27.17724 | 85.04071 | 15965 ft | 286 kts | 76° |
| 2026-05-06 11:06 | 27.18528 | 85.06068 | 15638 ft | 278 kts | 53° |
| 2026-05-06 11:07 | 27.19662 | 85.07771 | 15379 ft | 267 kts | 53° |
| 2026-05-06 11:07 | 27.20723 | 85.09457 | 15118 ft | 262 kts | 55° |
| 2026-05-06 11:07 | 27.21765 | 85.11192 | 14907 ft | 279 kts | 56° |
| 2026-05-06 11:07 | 27.22889 | 85.13100 | 14606 ft | 301 kts | 56° |
| 2026-05-06 11:08 | 27.24030 | 85.15052 | 14305 ft | 296 kts | 56° |
| 2026-05-06 11:08 | 27.25348 | 85.16795 | 13902 ft | 293 kts | 32° |
| 2026-05-06 11:08 | 27.27180 | 85.17611 | 13760 ft | 278 kts | 8° |
| 2026-05-06 11:08 | 27.29065 | 85.17736 | 13606 ft | 265 kts | 360° |
| 2026-05-06 11:09 | 27.30821 | 85.18260 | 13531 ft | 260 kts | 22° |
| 2026-05-06 11:09 | 27.32496 | 85.19070 | 13432 ft | 266 kts | 20° |
| 2026-05-06 11:09 | 27.34223 | 85.19832 | 13263 ft | 264 kts | 16° |
| 2026-05-06 11:09 | 27.35988 | 85.20387 | 12993 ft | 264 kts | 10° |
| 2026-05-06 11:10 | 27.37774 | 85.20727 | 12714 ft | 257 kts | 4° |
| 2026-05-06 11:10 | 27.39541 | 85.20877 | 12472 ft | 254 kts | 358° |
| 2026-05-06 11:10 | 27.41315 | 85.20870 | 12018 ft | 258 kts | 358° |
| 2026-05-06 11:10 | 27.43070 | 85.20867 | 11692 ft | 244 kts | 358° |
| 2026-05-06 11:11 | 27.44704 | 85.20898 | 11412 ft | 227 kts | 2° |
| 2026-05-06 11:11 | 27.46242 | 85.21109 | 11166 ft | 220 kts | 9° |
| 2026-05-06 11:11 | 27.47755 | 85.21493 | 10981 ft | 228 kts | 15° |
| 2026-05-06 11:11 | 27.49257 | 85.22001 | 10729 ft | 222 kts | 15° |
| 2026-05-06 11:12 | 27.50713 | 85.22479 | 10496 ft | 215 kts | 15° |
| 2026-05-06 11:12 | 27.52134 | 85.22946 | 10306 ft | 212 kts | 15° |
| 2026-05-06 11:12 | 27.53531 | 85.23480 | 10193 ft | 212 kts | 22° |
| 2026-05-06 11:12 | 27.54845 | 85.24226 | 10103 ft | 211 kts | 30° |
| 2026-05-06 11:13 | 27.56055 | 85.25158 | 10007 ft | 209 kts | 37° |
| 2026-05-06 11:13 | 27.57116 | 85.26219 | 9922 ft | 198 kts | 44° |
| 2026-05-06 11:13 | 27.58016 | 85.27359 | 9842 ft | 192 kts | 51° |
| 2026-05-06 11:13 | 27.58775 | 85.28578 | 9763 ft | 189 kts | 57° |
| 2026-05-06 11:14 | 27.59406 | 85.29888 | 9682 ft | 191 kts | 63° |
| 2026-05-06 11:14 | 27.59935 | 85.31257 | 9597 ft | 190 kts | 69° |
| 2026-05-06 11:14 | 27.60378 | 85.32629 | 9544 ft | 183 kts | 69° |
| 2026-05-06 11:14 | 27.60812 | 85.33964 | 9467 ft | 181 kts | 69° |
| 2026-05-06 11:15 | 27.61244 | 85.35289 | 9349 ft | 184 kts | 69° |
| 2026-05-06 11:15 | 27.61689 | 85.36653 | 9174 ft | 186 kts | 69° |
| 2026-05-06 11:15 | 27.62141 | 85.38022 | 8986 ft | 182 kts | 67° |
| 2026-05-06 11:15 | 27.62699 | 85.39278 | 8770 ft | 177 kts | 58° |
| 2026-05-06 11:16 | 27.63402 | 85.40398 | 8633 ft | 178 kts | 50° |
| 2026-05-06 11:16 | 27.64229 | 85.41445 | 8432 ft | 179 kts | 46° |
| 2026-05-06 11:16 | 27.65076 | 85.42464 | 8251 ft | 177 kts | 46° |
| 2026-05-06 11:16 | 27.65917 | 85.43476 | 8071 ft | 176 kts | 46° |
| 2026-05-06 11:17 | 27.66754 | 85.44488 | 7896 ft | 177 kts | 46° |
| 2026-05-06 11:17 | 27.67595 | 85.45504 | 7718 ft | 178 kts | 46° |
| 2026-05-06 11:17 | 27.68517 | 85.46441 | 7525 ft | 179 kts | 33° |
| 2026-05-06 11:17 | 27.69625 | 85.47075 | 7274 ft | 179 kts | 17° |
| 2026-05-06 11:18 | 27.70825 | 85.47274 | 7022 ft | 172 kts | 359° |
| 2026-05-06 11:18 | 27.72001 | 85.47055 | 6847 ft | 173 kts | 343° |
| 2026-05-06 11:18 | 27.73080 | 85.46488 | 6665 ft | 167 kts | 327° |
| 2026-05-06 11:18 | 27.73945 | 85.45642 | 6421 ft | 164 kts | 311° |
| 2026-05-06 11:19 | 27.74557 | 85.44576 | 6210 ft | 162 kts | 295° |
| 2026-05-06 11:19 | 27.74900 | 85.43372 | 5994 ft | 162 kts | 280° |
| 2026-05-06 11:19 | 27.74942 | 85.42100 | 5848 ft | 161 kts | 265° |
| 2026-05-06 11:19 | 27.74686 | 85.40880 | 5567 ft | 158 kts | 250° |
| 2026-05-06 11:20 | 27.74205 | 85.39780 | 5361 ft | 157 kts | 241° |
| 2026-05-06 11:20 | 27.73650 | 85.38713 | 5167 ft | 158 kts | 239° |
| 2026-05-06 11:20 | 27.72986 | 85.37717 | 4947 ft | 160 kts | 228° |
| 2026-05-06 11:20 | 27.72096 | 85.37005 | 4679 ft | 156 kts | 208° |
| 2026-05-06 11:21 | 27.71078 | 85.36566 | 4491 ft | 156 kts | 206° |
| 2026-05-06 11:21 | 27.70109 | 85.36119 | 4395 ft | 139 kts | 202° |
| 2026-05-06 11:21 | 27.69410 | 85.35799 | 4393 ft | 77 kts | 202° |
| 2026-05-06 11:21 | 27.69116 | 85.35666 | 4391 ft | 14 kts | 201° |
| 2026-05-06 11:22 | 27.69097 | 85.35658 | 4391 ft | 6 kts | 205° |
| 2026-05-06 11:22 | 27.69070 | 85.35592 | 4389 ft | 13 kts | 283° |
| 2026-05-06 11:22 | 27.69143 | 85.35560 | 4387 ft | 13 kts | 24° |
| 2026-05-06 11:22 | 27.69226 | 85.35598 | 4390 ft | 13 kts | 21° |
| 2026-05-06 11:23 | 27.69309 | 85.35635 | 4393 ft | 12 kts | 21° |
| 2026-05-06 11:23 | 27.69387 | 85.35671 | 4393 ft | 12 kts | 23° |
| 2026-05-06 11:23 | 27.69464 | 85.35706 | 4395 ft | 12 kts | 21° |
| 2026-05-06 11:23 | 27.69539 | 85.35741 | 4397 ft | 12 kts | 22° |
| 2026-05-06 11:24 | 27.69613 | 85.35774 | 4397 ft | 11 kts | 21° |
| 2026-05-06 11:24 | 27.69684 | 85.35806 | 4397 ft | 11 kts | 22° |
| 2026-05-06 11:24 | 27.69753 | 85.35838 | 4396 ft | 11 kts | 22° |
| 2026-05-06 11:24 | 27.69822 | 85.35869 | 4396 ft | 10 kts | 18° |
| 2026-05-06 11:25 | 27.69865 | 85.35822 | 4397 ft | 8 kts | 291° |
| 2026-05-06 11:25 | 27.69876 | 85.35790 | 4397 ft | 0 kts | 291° |